sensor_id;sensor_type;location;lat;lon;timestamp;temperature;humidity
4687;DHT22;2357;47.316;-1.348;2023-05-07T00:00:33;15.50;99.90
4687;DHT22;2357;47.316;-1.348;2023-05-07T00:02:59;15.50;99.90
4687;DHT22;2357;47.316;-1.348;2023-05-07T00:05:25;15.40;99.90
4687;DHT22;2357;47.316;-1.348;2023-05-07T00:07:51;15.40;99.90
4687;DHT22;2357;47.316;-1.348;2023-05-07T00:10:18;15.40;99.90
4687;DHT22;2357;47.316;-1.348;2023-05-07T00:12:44;15.40;99.90
4687;DHT22;2357;47.316;-1.348;2023-05-07T00:15:10;15.30;99.90
4687;DHT22;2357;47.316;-1.348;2023-05-07T00:17:35;15.30;99.90
4687;DHT22;2357;47.316;-1.348;2023-05-07T00:20:02;15.30;99.90
4687;DHT22;2357;47.316;-1.348;2023-05-07T00:22:29;15.30;99.90
4687;DHT22;2357;47.316;-1.348;2023-05-07T00:24:55;15.20;99.90
4687;DHT22;2357;47.316;-1.348;2023-05-07T00:27:21;15.30;99.90
4687;DHT22;2357;47.316;-1.348;2023-05-07T00:29:47;15.20;99.90
4687;DHT22;2357;47.316;-1.348;2023-05-07T00:32:12;15.20;99.90
4687;DHT22;2357;47.316;-1.348;2023-05-07T00:34:38;15.30;99.90
4687;DHT22;2357;47.316;-1.348;2023-05-07T00:37:05;15.40;99.90
4687;DHT22;2357;47.316;-1.348;2023-05-07T00:39:33;15.40;99.90
4687;DHT22;2357;47.316;-1.348;2023-05-07T00:41:58;15.40;99.90
4687;DHT22;2357;47.316;-1.348;2023-05-07T00:44:24;15.50;99.90
4687;DHT22;2357;47.316;-1.348;2023-05-07T00:46:50;15.50;99.90
4687;DHT22;2357;47.316;-1.348;2023-05-07T00:49:16;15.40;99.90
4687;DHT22;2357;47.316;-1.348;2023-05-07T00:51:43;15.50;99.90
4687;DHT22;2357;47.316;-1.348;2023-05-07T00:54:09;15.40;99.90
4687;DHT22;2357;47.316;-1.348;2023-05-07T00:56:34;15.40;99.90
4687;DHT22;2357;47.316;-1.348;2023-05-07T00:59:02;15.40;99.90
4687;DHT22;2357;47.316;-1.348;2023-05-07T01:01:28;15.40;99.90
4687;DHT22;2357;47.316;-1.348;2023-05-07T01:03:54;15.30;99.90
4687;DHT22;2357;47.316;-1.348;2023-05-07T01:06:20;15.40;99.90
4687;DHT22;2357;47.316;-1.348;2023-05-07T01:08:47;15.40;99.90
4687;DHT22;2357;47.316;-1.348;2023-05-07T01:11:14;15.40;99.90
4687;DHT22;2357;47.316;-1.348;2023-05-07T01:13:40;15.40;99.90
4687;DHT22;2357;47.316;-1.348;2023-05-07T01:16:08;15.40;99.90
4687;DHT22;2357;47.316;-1.348;2023-05-07T01:18:33;15.40;99.90
4687;DHT22;2357;47.316;-1.348;2023-05-07T01:20:59;15.40;99.90
4687;DHT22;2357;47.316;-1.348;2023-05-07T01:23:27;15.40;99.90
4687;DHT22;2357;47.316;-1.348;2023-05-07T01:25:54;15.50;99.90
4687;DHT22;2357;47.316;-1.348;2023-05-07T01:28:20;15.40;99.90
4687;DHT22;2357;47.316;-1.348;2023-05-07T01:30:52;15.40;99.90
4687;DHT22;2357;47.316;-1.348;2023-05-07T01:33:20;15.40;99.90
4687;DHT22;2357;47.316;-1.348;2023-05-07T01:35:50;15.40;99.90
4687;DHT22;2357;47.316;-1.348;2023-05-07T01:38:17;15.40;99.90
4687;DHT22;2357;47.316;-1.348;2023-05-07T01:40:43;15.40;99.90
4687;DHT22;2357;47.316;-1.348;2023-05-07T01:43:09;15.40;99.90
4687;DHT22;2357;47.316;-1.348;2023-05-07T01:45:35;15.30;99.90
4687;DHT22;2357;47.316;-1.348;2023-05-07T01:48:02;15.30;99.90
4687;DHT22;2357;47.316;-1.348;2023-05-07T01:50:29;15.40;99.90
4687;DHT22;2357;47.316;-1.348;2023-05-07T01:52:56;15.30;99.90
4687;DHT22;2357;47.316;-1.348;2023-05-07T01:55:22;15.30;99.90
4687;DHT22;2357;47.316;-1.348;2023-05-07T01:57:48;15.30;99.90
4687;DHT22;2357;47.316;-1.348;2023-05-07T02:00:13;15.30;99.90
4687;DHT22;2357;47.316;-1.348;2023-05-07T02:02:39;15.30;99.90
4687;DHT22;2357;47.316;-1.348;2023-05-07T02:05:05;15.30;99.90
4687;DHT22;2357;47.316;-1.348;2023-05-07T02:07:31;15.30;99.90
4687;DHT22;2357;47.316;-1.348;2023-05-07T02:09:56;15.20;99.90
4687;DHT22;2357;47.316;-1.348;2023-05-07T02:12:22;15.30;99.90
4687;DHT22;2357;47.316;-1.348;2023-05-07T02:14:48;15.20;99.90
4687;DHT22;2357;47.316;-1.348;2023-05-07T02:17:14;15.20;99.90
4687;DHT22;2357;47.316;-1.348;2023-05-07T02:19:40;15.20;99.90
4687;DHT22;2357;47.316;-1.348;2023-05-07T02:22:06;15.30;99.90
4687;DHT22;2357;47.316;-1.348;2023-05-07T02:24:32;15.20;99.90
4687;DHT22;2357;47.316;-1.348;2023-05-07T02:26:57;15.20;99.90
4687;DHT22;2357;47.316;-1.348;2023-05-07T02:29:23;15.30;99.90
4687;DHT22;2357;47.316;-1.348;2023-05-07T02:31:48;15.30;99.90
4687;DHT22;2357;47.316;-1.348;2023-05-07T02:34:18;15.30;99.90
4687;DHT22;2357;47.316;-1.348;2023-05-07T02:36:44;15.30;99.90
4687;DHT22;2357;47.316;-1.348;2023-05-07T02:39:11;15.30;99.90
4687;DHT22;2357;47.316;-1.348;2023-05-07T02:41:37;15.30;99.90
4687;DHT22;2357;47.316;-1.348;2023-05-07T02:44:02;15.30;99.90
4687;DHT22;2357;47.316;-1.348;2023-05-07T02:46:28;15.30;99.90
4687;DHT22;2357;47.316;-1.348;2023-05-07T02:48:54;15.30;99.90
4687;DHT22;2357;47.316;-1.348;2023-05-07T02:51:21;15.40;99.90
4687;DHT22;2357;47.316;-1.348;2023-05-07T02:53:47;15.30;99.90
4687;DHT22;2357;47.316;-1.348;2023-05-07T02:56:12;15.30;99.90
4687;DHT22;2357;47.316;-1.348;2023-05-07T02:58:38;15.30;99.90
4687;DHT22;2357;47.316;-1.348;2023-05-07T03:01:10;15.30;99.90
4687;DHT22;2357;47.316;-1.348;2023-05-07T03:03:35;15.30;99.90
4687;DHT22;2357;47.316;-1.348;2023-05-07T03:06:01;15.30;99.90
4687;DHT22;2357;47.316;-1.348;2023-05-07T03:08:27;15.10;99.90
4687;DHT22;2357;47.316;-1.348;2023-05-07T03:10:53;15.30;99.90
4687;DHT22;2357;47.316;-1.348;2023-05-07T03:13:18;15.20;99.90
4687;DHT22;2357;47.316;-1.348;2023-05-07T03:15:44;15.20;99.90
4687;DHT22;2357;47.316;-1.348;2023-05-07T03:18:10;15.20;99.90
4687;DHT22;2357;47.316;-1.348;2023-05-07T03:20:36;15.20;99.90
4687;DHT22;2357;47.316;-1.348;2023-05-07T03:23:02;15.20;99.90
4687;DHT22;2357;47.316;-1.348;2023-05-07T03:25:28;15.20;99.90
4687;DHT22;2357;47.316;-1.348;2023-05-07T03:27:56;15.10;99.90
4687;DHT22;2357;47.316;-1.348;2023-05-07T03:30:21;15.20;99.90
4687;DHT22;2357;47.316;-1.348;2023-05-07T03:32:47;15.20;99.90
4687;DHT22;2357;47.316;-1.348;2023-05-07T03:35:13;15.20;99.90
4687;DHT22;2357;47.316;-1.348;2023-05-07T03:37:39;15.20;99.90
4687;DHT22;2357;47.316;-1.348;2023-05-07T03:40:06;15.20;99.90
4687;DHT22;2357;47.316;-1.348;2023-05-07T03:42:32;15.20;99.90
4687;DHT22;2357;47.316;-1.348;2023-05-07T03:44:57;15.20;99.90
4687;DHT22;2357;47.316;-1.348;2023-05-07T03:47:23;15.20;99.90
4687;DHT22;2357;47.316;-1.348;2023-05-07T03:49:48;15.20;99.90
4687;DHT22;2357;47.316;-1.348;2023-05-07T03:52:15;15.30;99.90
4687;DHT22;2357;47.316;-1.348;2023-05-07T03:54:41;15.20;99.90
4687;DHT22;2357;47.316;-1.348;2023-05-07T03:57:07;15.20;99.90
4687;DHT22;2357;47.316;-1.348;2023-05-07T03:59:32;15.20;99.90
4687;DHT22;2357;47.316;-1.348;2023-05-07T04:01:58;15.20;99.90
4687;DHT22;2357;47.316;-1.348;2023-05-07T04:04:24;15.20;99.90
4687;DHT22;2357;47.316;-1.348;2023-05-07T04:06:49;15.20;99.90
4687;DHT22;2357;47.316;-1.348;2023-05-07T04:09:15;15.20;99.90
4687;DHT22;2357;47.316;-1.348;2023-05-07T04:11:40;15.20;99.90
4687;DHT22;2357;47.316;-1.348;2023-05-07T04:14:06;15.20;99.90
4687;DHT22;2357;47.316;-1.348;2023-05-07T04:16:32;15.20;99.90
4687;DHT22;2357;47.316;-1.348;2023-05-07T04:18:57;15.20;99.90
4687;DHT22;2357;47.316;-1.348;2023-05-07T04:21:23;15.10;99.90
4687;DHT22;2357;47.316;-1.348;2023-05-07T04:23:49;15.00;99.90
4687;DHT22;2357;47.316;-1.348;2023-05-07T04:26:15;15.00;99.90
4687;DHT22;2357;47.316;-1.348;2023-05-07T04:28:41;14.90;99.90
4687;DHT22;2357;47.316;-1.348;2023-05-07T04:31:07;14.90;99.90
4687;DHT22;2357;47.316;-1.348;2023-05-07T04:33:33;14.90;99.90
4687;DHT22;2357;47.316;-1.348;2023-05-07T04:36:01;14.90;99.90
4687;DHT22;2357;47.316;-1.348;2023-05-07T04:38:30;14.90;99.90
4687;DHT22;2357;47.316;-1.348;2023-05-07T04:41:06;14.90;99.90
4687;DHT22;2357;47.316;-1.348;2023-05-07T04:43:32;14.90;99.90
4687;DHT22;2357;47.316;-1.348;2023-05-07T04:45:58;14.80;99.90
4687;DHT22;2357;47.316;-1.348;2023-05-07T04:48:24;14.80;99.90
4687;DHT22;2357;47.316;-1.348;2023-05-07T04:50:50;14.90;99.90
4687;DHT22;2357;47.316;-1.348;2023-05-07T04:53:16;14.90;99.90
4687;DHT22;2357;47.316;-1.348;2023-05-07T04:55:43;15.00;99.90
4687;DHT22;2357;47.316;-1.348;2023-05-07T04:58:09;14.90;99.90
4687;DHT22;2357;47.316;-1.348;2023-05-07T05:00:34;14.90;99.90
4687;DHT22;2357;47.316;-1.348;2023-05-07T05:03:00;14.90;99.90
4687;DHT22;2357;47.316;-1.348;2023-05-07T05:05:26;14.90;99.90
4687;DHT22;2357;47.316;-1.348;2023-05-07T05:07:51;15.00;99.90
4687;DHT22;2357;47.316;-1.348;2023-05-07T05:10:17;14.90;99.90
4687;DHT22;2357;47.316;-1.348;2023-05-07T05:12:43;14.90;99.90
4687;DHT22;2357;47.316;-1.348;2023-05-07T05:15:11;14.80;99.90
4687;DHT22;2357;47.316;-1.348;2023-05-07T05:17:37;14.80;99.90
4687;DHT22;2357;47.316;-1.348;2023-05-07T05:20:03;14.70;99.90
4687;DHT22;2357;47.316;-1.348;2023-05-07T05:22:29;14.70;99.90
4687;DHT22;2357;47.316;-1.348;2023-05-07T05:24:56;14.70;99.90
4687;DHT22;2357;47.316;-1.348;2023-05-07T05:27:22;14.70;99.90
4687;DHT22;2357;47.316;-1.348;2023-05-07T05:29:47;14.70;99.90
4687;DHT22;2357;47.316;-1.348;2023-05-07T05:32:13;14.70;99.90
4687;DHT22;2357;47.316;-1.348;2023-05-07T05:34:38;14.60;99.90
4687;DHT22;2357;47.316;-1.348;2023-05-07T05:37:04;14.60;99.90
4687;DHT22;2357;47.316;-1.348;2023-05-07T05:39:30;14.70;99.90
4687;DHT22;2357;47.316;-1.348;2023-05-07T05:41:56;14.70;99.90
4687;DHT22;2357;47.316;-1.348;2023-05-07T05:44:21;14.70;99.90
4687;DHT22;2357;47.316;-1.348;2023-05-07T05:46:47;14.70;99.90
4687;DHT22;2357;47.316;-1.348;2023-05-07T05:49:15;14.80;99.90
4687;DHT22;2357;47.316;-1.348;2023-05-07T05:51:41;14.80;99.90
4687;DHT22;2357;47.316;-1.348;2023-05-07T05:54:06;14.80;99.90
4687;DHT22;2357;47.316;-1.348;2023-05-07T05:56:32;14.90;99.90
4687;DHT22;2357;47.316;-1.348;2023-05-07T05:58:58;14.90;99.90
4687;DHT22;2357;47.316;-1.348;2023-05-07T06:01:23;14.90;99.90
4687;DHT22;2357;47.316;-1.348;2023-05-07T06:03:49;15.00;99.90
4687;DHT22;2357;47.316;-1.348;2023-05-07T06:06:15;15.00;99.90
4687;DHT22;2357;47.316;-1.348;2023-05-07T06:08:41;15.00;99.90
4687;DHT22;2357;47.316;-1.348;2023-05-07T06:11:07;14.80;99.90
4687;DHT22;2357;47.316;-1.348;2023-05-07T06:13:33;15.00;99.90
4687;DHT22;2357;47.316;-1.348;2023-05-07T06:15:58;15.10;99.90
4687;DHT22;2357;47.316;-1.348;2023-05-07T06:18:24;15.10;99.90
4687;DHT22;2357;47.316;-1.348;2023-05-07T06:20:51;15.30;99.90
4687;DHT22;2357;47.316;-1.348;2023-05-07T06:23:17;15.40;99.90
4687;DHT22;2357;47.316;-1.348;2023-05-07T06:25:48;15.50;99.90
4687;DHT22;2357;47.316;-1.348;2023-05-07T06:28:13;15.40;99.90
4687;DHT22;2357;47.316;-1.348;2023-05-07T06:30:39;15.30;99.90
4687;DHT22;2357;47.316;-1.348;2023-05-07T06:33:05;15.30;99.90
4687;DHT22;2357;47.316;-1.348;2023-05-07T06:35:31;15.30;99.90
4687;DHT22;2357;47.316;-1.348;2023-05-07T06:37:57;15.20;99.90
4687;DHT22;2357;47.316;-1.348;2023-05-07T06:40:22;15.30;99.90
4687;DHT22;2357;47.316;-1.348;2023-05-07T06:42:48;15.40;99.90
4687;DHT22;2357;47.316;-1.348;2023-05-07T06:45:14;15.40;99.90
4687;DHT22;2357;47.316;-1.348;2023-05-07T06:47:39;15.40;99.90
4687;DHT22;2357;47.316;-1.348;2023-05-07T06:50:05;15.50;99.90
4687;DHT22;2357;47.316;-1.348;2023-05-07T06:52:31;15.50;99.90
4687;DHT22;2357;47.316;-1.348;2023-05-07T06:54:57;15.50;99.90
4687;DHT22;2357;47.316;-1.348;2023-05-07T06:57:23;15.40;99.90
4687;DHT22;2357;47.316;-1.348;2023-05-07T06:59:49;15.40;99.90
4687;DHT22;2357;47.316;-1.348;2023-05-07T07:02:14;15.50;99.90
4687;DHT22;2357;47.316;-1.348;2023-05-07T07:04:40;15.60;99.90
4687;DHT22;2357;47.316;-1.348;2023-05-07T07:07:07;15.70;99.90
4687;DHT22;2357;47.316;-1.348;2023-05-07T07:09:33;15.90;99.90
4687;DHT22;2357;47.316;-1.348;2023-05-07T07:11:58;15.90;99.90
4687;DHT22;2357;47.316;-1.348;2023-05-07T07:14:24;16.10;99.90
4687;DHT22;2357;47.316;-1.348;2023-05-07T07:16:50;16.10;99.90
4687;DHT22;2357;47.316;-1.348;2023-05-07T07:19:16;16.10;99.90
4687;DHT22;2357;47.316;-1.348;2023-05-07T07:21:42;16.10;99.90
4687;DHT22;2357;47.316;-1.348;2023-05-07T07:24:07;16.00;99.90
4687;DHT22;2357;47.316;-1.348;2023-05-07T07:26:33;16.10;99.90
4687;DHT22;2357;47.316;-1.348;2023-05-07T07:28:58;16.10;99.90
4687;DHT22;2357;47.316;-1.348;2023-05-07T07:31:24;16.10;99.90
4687;DHT22;2357;47.316;-1.348;2023-05-07T07:33:50;16.20;99.90
4687;DHT22;2357;47.316;-1.348;2023-05-07T07:36:15;16.40;99.90
4687;DHT22;2357;47.316;-1.348;2023-05-07T07:38:41;16.50;99.90
4687;DHT22;2357;47.316;-1.348;2023-05-07T07:41:10;16.70;99.90
4687;DHT22;2357;47.316;-1.348;2023-05-07T07:43:35;16.70;99.90
4687;DHT22;2357;47.316;-1.348;2023-05-07T07:46:01;16.70;99.90
4687;DHT22;2357;47.316;-1.348;2023-05-07T07:48:27;16.70;99.90
4687;DHT22;2357;47.316;-1.348;2023-05-07T07:50:52;16.60;99.90
4687;DHT22;2357;47.316;-1.348;2023-05-07T07:53:18;16.70;99.90
4687;DHT22;2357;47.316;-1.348;2023-05-07T07:55:44;16.60;99.90
4687;DHT22;2357;47.316;-1.348;2023-05-07T07:58:10;16.70;99.90
4687;DHT22;2357;47.316;-1.348;2023-05-07T08:00:36;16.80;99.90
4687;DHT22;2357;47.316;-1.348;2023-05-07T08:03:02;16.90;99.90
4687;DHT22;2357;47.316;-1.348;2023-05-07T08:05:28;17.10;99.90
4687;DHT22;2357;47.316;-1.348;2023-05-07T08:07:54;17.40;99.90
4687;DHT22;2357;47.316;-1.348;2023-05-07T08:10:21;17.50;99.90
4687;DHT22;2357;47.316;-1.348;2023-05-07T08:12:49;17.50;99.90
4687;DHT22;2357;47.316;-1.348;2023-05-07T08:15:16;17.50;99.90
4687;DHT22;2357;47.316;-1.348;2023-05-07T08:17:41;17.20;99.90
4687;DHT22;2357;47.316;-1.348;2023-05-07T08:20:07;17.10;99.90
4687;DHT22;2357;47.316;-1.348;2023-05-07T08:22:36;17.20;99.90
4687;DHT22;2357;47.316;-1.348;2023-05-07T08:25:03;17.30;99.90
4687;DHT22;2357;47.316;-1.348;2023-05-07T08:27:28;17.20;99.90
4687;DHT22;2357;47.316;-1.348;2023-05-07T08:29:54;17.20;99.90
4687;DHT22;2357;47.316;-1.348;2023-05-07T08:32:20;17.20;99.90
4687;DHT22;2357;47.316;-1.348;2023-05-07T08:34:46;17.30;99.90
4687;DHT22;2357;47.316;-1.348;2023-05-07T08:37:12;17.30;99.90
4687;DHT22;2357;47.316;-1.348;2023-05-07T08:39:38;17.40;99.90
4687;DHT22;2357;47.316;-1.348;2023-05-07T08:42:04;17.70;99.90
4687;DHT22;2357;47.316;-1.348;2023-05-07T08:44:33;17.50;99.90
4687;DHT22;2357;47.316;-1.348;2023-05-07T08:47:01;17.50;99.90
4687;DHT22;2357;47.316;-1.348;2023-05-07T08:49:30;17.60;99.90
4687;DHT22;2357;47.316;-1.348;2023-05-07T08:51:56;17.70;99.90
4687;DHT22;2357;47.316;-1.348;2023-05-07T08:54:21;17.80;99.90
4687;DHT22;2357;47.316;-1.348;2023-05-07T08:56:47;17.70;99.90
4687;DHT22;2357;47.316;-1.348;2023-05-07T08:59:13;17.70;99.90
4687;DHT22;2357;47.316;-1.348;2023-05-07T09:01:39;17.60;99.90
4687;DHT22;2357;47.316;-1.348;2023-05-07T09:04:05;17.50;99.90
4687;DHT22;2357;47.316;-1.348;2023-05-07T09:06:32;17.40;99.90
4687;DHT22;2357;47.316;-1.348;2023-05-07T09:08:58;17.40;99.90
4687;DHT22;2357;47.316;-1.348;2023-05-07T09:11:27;17.40;99.90
4687;DHT22;2357;47.316;-1.348;2023-05-07T09:13:56;17.40;99.90
4687;DHT22;2357;47.316;-1.348;2023-05-07T09:16:23;17.60;99.90
4687;DHT22;2357;47.316;-1.348;2023-05-07T09:18:52;17.70;99.90
4687;DHT22;2357;47.316;-1.348;2023-05-07T09:21:19;17.50;99.90
4687;DHT22;2357;47.316;-1.348;2023-05-07T09:23:45;17.70;99.90
4687;DHT22;2357;47.316;-1.348;2023-05-07T09:26:10;17.90;99.90
4687;DHT22;2357;47.316;-1.348;2023-05-07T09:28:40;18.10;99.90
4687;DHT22;2357;47.316;-1.348;2023-05-07T09:31:07;18.20;99.90
4687;DHT22;2357;47.316;-1.348;2023-05-07T09:33:33;18.30;99.90
4687;DHT22;2357;47.316;-1.348;2023-05-07T09:36:01;18.00;99.90
4687;DHT22;2357;47.316;-1.348;2023-05-07T09:38:27;18.20;99.90
4687;DHT22;2357;47.316;-1.348;2023-05-07T09:41:03;18.40;99.90
4687;DHT22;2357;47.316;-1.348;2023-05-07T09:43:32;18.60;99.90
4687;DHT22;2357;47.316;-1.348;2023-05-07T09:46:12;18.70;99.90
4687;DHT22;2357;47.316;-1.348;2023-05-07T09:48:41;18.60;99.90
4687;DHT22;2357;47.316;-1.348;2023-05-07T09:51:41;18.60;99.90
4687;DHT22;2357;47.316;-1.348;2023-05-07T09:54:04;18.60;99.90
4687;DHT22;2357;47.316;-1.348;2023-05-07T09:56:30;18.60;99.90
4687;DHT22;2357;47.316;-1.348;2023-05-07T09:59:00;18.60;99.90
4687;DHT22;2357;47.316;-1.348;2023-05-07T10:01:26;18.80;99.90
4687;DHT22;2357;47.316;-1.348;2023-05-07T10:03:53;18.90;99.90
4687;DHT22;2357;47.316;-1.348;2023-05-07T10:06:20;18.90;99.90
4687;DHT22;2357;47.316;-1.348;2023-05-07T10:08:45;18.50;99.90
4687;DHT22;2357;47.316;-1.348;2023-05-07T10:11:12;18.60;99.90
4687;DHT22;2357;47.316;-1.348;2023-05-07T10:13:40;18.60;99.90
4687;DHT22;2357;47.316;-1.348;2023-05-07T10:16:06;18.70;99.90
4687;DHT22;2357;47.316;-1.348;2023-05-07T10:18:33;18.90;99.90
4687;DHT22;2357;47.316;-1.348;2023-05-07T10:21:10;19.00;99.90
4687;DHT22;2357;47.316;-1.348;2023-05-07T10:23:37;19.20;99.90
4687;DHT22;2357;47.316;-1.348;2023-05-07T10:26:06;19.20;99.90
4687;DHT22;2357;47.316;-1.348;2023-05-07T10:28:39;19.20;99.90
4687;DHT22;2357;47.316;-1.348;2023-05-07T10:34:13;19.10;99.90
4687;DHT22;2357;47.316;-1.348;2023-05-07T10:36:40;19.20;99.90
4687;DHT22;2357;47.316;-1.348;2023-05-07T10:39:07;19.30;99.90
4687;DHT22;2357;47.316;-1.348;2023-05-07T10:41:33;19.30;99.90
4687;DHT22;2357;47.316;-1.348;2023-05-07T10:44:00;19.60;99.90
4687;DHT22;2357;47.316;-1.348;2023-05-07T10:46:27;19.60;99.90
4687;DHT22;2357;47.316;-1.348;2023-05-07T10:51:34;19.60;99.90
4687;DHT22;2357;47.316;-1.348;2023-05-07T10:56:36;19.50;99.90
4687;DHT22;2357;47.316;-1.348;2023-05-07T11:01:57;19.70;99.90
4687;DHT22;2357;47.316;-1.348;2023-05-07T11:04:27;19.50;99.90
4687;DHT22;2357;47.316;-1.348;2023-05-07T11:15:06;20.40;99.90
4687;DHT22;2357;47.316;-1.348;2023-05-07T11:17:32;20.80;99.90
4687;DHT22;2357;47.316;-1.348;2023-05-07T11:20:03;20.80;99.90
4687;DHT22;2357;47.316;-1.348;2023-05-07T11:25:05;20.40;99.90
4687;DHT22;2357;47.316;-1.348;2023-05-07T11:27:32;20.10;99.90
4687;DHT22;2357;47.316;-1.348;2023-05-07T11:29:58;19.60;99.90
4687;DHT22;2357;47.316;-1.348;2023-05-07T11:32:31;19.80;99.90
4687;DHT22;2357;47.316;-1.348;2023-05-07T11:34:59;19.70;99.90
4687;DHT22;2357;47.316;-1.348;2023-05-07T11:37:26;19.60;99.90
4687;DHT22;2357;47.316;-1.348;2023-05-07T11:40:06;19.50;99.90
4687;DHT22;2357;47.316;-1.348;2023-05-07T11:42:39;19.60;99.90
4687;DHT22;2357;47.316;-1.348;2023-05-07T11:45:07;19.80;99.90
4687;DHT22;2357;47.316;-1.348;2023-05-07T11:47:34;19.90;99.90
4687;DHT22;2357;47.316;-1.348;2023-05-07T11:50:05;20.10;99.90
4687;DHT22;2357;47.316;-1.348;2023-05-07T11:52:31;20.00;99.90
4687;DHT22;2357;47.316;-1.348;2023-05-07T11:54:58;20.20;99.90
4687;DHT22;2357;47.316;-1.348;2023-05-07T11:57:25;20.40;99.90
4687;DHT22;2357;47.316;-1.348;2023-05-07T11:59:58;20.50;99.90
4687;DHT22;2357;47.316;-1.348;2023-05-07T12:02:25;20.50;99.90
4687;DHT22;2357;47.316;-1.348;2023-05-07T12:04:51;20.40;99.90
4687;DHT22;2357;47.316;-1.348;2023-05-07T12:07:17;20.40;99.90
4687;DHT22;2357;47.316;-1.348;2023-05-07T12:09:45;20.20;99.90
4687;DHT22;2357;47.316;-1.348;2023-05-07T12:12:11;20.00;99.90
4687;DHT22;2357;47.316;-1.348;2023-05-07T12:14:43;20.20;99.90
4687;DHT22;2357;47.316;-1.348;2023-05-07T12:17:11;20.30;99.90
4687;DHT22;2357;47.316;-1.348;2023-05-07T12:19:38;20.80;99.90
4687;DHT22;2357;47.316;-1.348;2023-05-07T12:22:05;21.00;99.90
4687;DHT22;2357;47.316;-1.348;2023-05-07T12:24:45;20.50;99.90
4687;DHT22;2357;47.316;-1.348;2023-05-07T12:27:11;20.40;99.90
4687;DHT22;2357;47.316;-1.348;2023-05-07T12:29:37;20.30;99.90
4687;DHT22;2357;47.316;-1.348;2023-05-07T12:32:06;20.40;99.90
4687;DHT22;2357;47.316;-1.348;2023-05-07T12:34:32;20.70;99.90
4687;DHT22;2357;47.316;-1.348;2023-05-07T12:37:02;21.20;99.90
4687;DHT22;2357;47.316;-1.348;2023-05-07T12:39:28;21.40;99.90
4687;DHT22;2357;47.316;-1.348;2023-05-07T12:41:58;21.70;99.90
4687;DHT22;2357;47.316;-1.348;2023-05-07T12:44:34;22.00;99.90
4687;DHT22;2357;47.316;-1.348;2023-05-07T12:47:02;21.70;99.90
4687;DHT22;2357;47.316;-1.348;2023-05-07T12:49:28;21.20;99.90
4687;DHT22;2357;47.316;-1.348;2023-05-07T12:51:54;21.40;99.90
4687;DHT22;2357;47.316;-1.348;2023-05-07T12:54:34;21.90;99.90
4687;DHT22;2357;47.316;-1.348;2023-05-07T12:57:05;22.20;99.90
4687;DHT22;2357;47.316;-1.348;2023-05-07T12:59:36;23.00;99.90
4687;DHT22;2357;47.316;-1.348;2023-05-07T13:02:01;22.90;99.90
4687;DHT22;2357;47.316;-1.348;2023-05-07T13:04:27;22.60;99.90
4687;DHT22;2357;47.316;-1.348;2023-05-07T13:06:52;21.90;99.90
4687;DHT22;2357;47.316;-1.348;2023-05-07T13:09:18;21.70;99.90
4687;DHT22;2357;47.316;-1.348;2023-05-07T13:11:44;21.30;99.90
4687;DHT22;2357;47.316;-1.348;2023-05-07T13:14:09;20.60;99.90
4687;DHT22;2357;47.316;-1.348;2023-05-07T13:16:35;20.30;99.90
4687;DHT22;2357;47.316;-1.348;2023-05-07T13:19:00;19.80;99.90
4687;DHT22;2357;47.316;-1.348;2023-05-07T13:21:26;19.60;99.90
4687;DHT22;2357;47.316;-1.348;2023-05-07T13:23:52;19.30;99.90
4687;DHT22;2357;47.316;-1.348;2023-05-07T13:26:18;19.20;99.90
4687;DHT22;2357;47.316;-1.348;2023-05-07T13:28:44;19.40;99.90
4687;DHT22;2357;47.316;-1.348;2023-05-07T13:31:09;19.50;99.90
4687;DHT22;2357;47.316;-1.348;2023-05-07T13:33:35;19.40;99.90
4687;DHT22;2357;47.316;-1.348;2023-05-07T13:36:01;19.50;99.90
4687;DHT22;2357;47.316;-1.348;2023-05-07T13:38:30;19.60;99.90
4687;DHT22;2357;47.316;-1.348;2023-05-07T13:40:55;19.70;99.90
4687;DHT22;2357;47.316;-1.348;2023-05-07T13:43:21;20.00;99.90
4687;DHT22;2357;47.316;-1.348;2023-05-07T13:45:47;20.20;99.90
4687;DHT22;2357;47.316;-1.348;2023-05-07T13:48:12;20.40;99.90
4687;DHT22;2357;47.316;-1.348;2023-05-07T13:50:38;20.40;99.90
4687;DHT22;2357;47.316;-1.348;2023-05-07T13:53:03;20.60;99.90
4687;DHT22;2357;47.316;-1.348;2023-05-07T13:55:29;20.50;99.90
4687;DHT22;2357;47.316;-1.348;2023-05-07T13:58:00;20.70;99.90
4687;DHT22;2357;47.316;-1.348;2023-05-07T14:00:27;20.90;99.90
4687;DHT22;2357;47.316;-1.348;2023-05-07T14:02:54;20.90;99.90
4687;DHT22;2357;47.316;-1.348;2023-05-07T14:05:20;20.90;99.90
4687;DHT22;2357;47.316;-1.348;2023-05-07T14:07:48;21.00;99.90
4687;DHT22;2357;47.316;-1.348;2023-05-07T14:10:17;21.10;99.90
4687;DHT22;2357;47.316;-1.348;2023-05-07T14:12:44;21.30;99.90
4687;DHT22;2357;47.316;-1.348;2023-05-07T14:15:10;21.60;99.90
4687;DHT22;2357;47.316;-1.348;2023-05-07T14:17:36;22.40;99.90
4687;DHT22;2357;47.316;-1.348;2023-05-07T14:20:01;22.80;99.90
4687;DHT22;2357;47.316;-1.348;2023-05-07T14:22:27;22.80;99.90
4687;DHT22;2357;47.316;-1.348;2023-05-07T14:24:53;22.90;99.90
4687;DHT22;2357;47.316;-1.348;2023-05-07T14:27:18;22.80;99.90
4687;DHT22;2357;47.316;-1.348;2023-05-07T14:29:44;22.80;99.90
4687;DHT22;2357;47.316;-1.348;2023-05-07T14:32:11;22.60;99.90
4687;DHT22;2357;47.316;-1.348;2023-05-07T14:34:36;22.80;99.90
4687;DHT22;2357;47.316;-1.348;2023-05-07T14:37:02;23.40;99.90
4687;DHT22;2357;47.316;-1.348;2023-05-07T14:39:28;23.90;99.90
4687;DHT22;2357;47.316;-1.348;2023-05-07T14:41:54;23.50;99.90
4687;DHT22;2357;47.316;-1.348;2023-05-07T14:44:21;23.50;99.90
4687;DHT22;2357;47.316;-1.348;2023-05-07T14:46:47;23.30;99.90
4687;DHT22;2357;47.316;-1.348;2023-05-07T14:49:14;23.50;99.90
4687;DHT22;2357;47.316;-1.348;2023-05-07T14:51:45;23.00;99.90
4687;DHT22;2357;47.316;-1.348;2023-05-07T14:54:12;23.20;99.90
4687;DHT22;2357;47.316;-1.348;2023-05-07T14:56:38;22.50;99.90
4687;DHT22;2357;47.316;-1.348;2023-05-07T14:59:04;22.40;99.90
4687;DHT22;2357;47.316;-1.348;2023-05-07T15:01:29;22.60;99.90
4687;DHT22;2357;47.316;-1.348;2023-05-07T15:03:55;22.30;99.90
4687;DHT22;2357;47.316;-1.348;2023-05-07T15:06:21;22.10;99.90
4687;DHT22;2357;47.316;-1.348;2023-05-07T15:08:47;21.90;99.90
4687;DHT22;2357;47.316;-1.348;2023-05-07T15:11:14;21.90;99.90
4687;DHT22;2357;47.316;-1.348;2023-05-07T15:13:42;22.00;99.90
4687;DHT22;2357;47.316;-1.348;2023-05-07T15:16:08;21.60;99.90
4687;DHT22;2357;47.316;-1.348;2023-05-07T15:18:34;21.50;99.90
4687;DHT22;2357;47.316;-1.348;2023-05-07T15:20:59;21.50;99.90
4687;DHT22;2357;47.316;-1.348;2023-05-07T15:23:25;21.60;99.90
4687;DHT22;2357;47.316;-1.348;2023-05-07T15:25:52;21.60;99.90
4687;DHT22;2357;47.316;-1.348;2023-05-07T15:28:17;21.50;99.90
4687;DHT22;2357;47.316;-1.348;2023-05-07T15:30:43;21.60;99.90
4687;DHT22;2357;47.316;-1.348;2023-05-07T15:33:08;21.70;99.90
4687;DHT22;2357;47.316;-1.348;2023-05-07T15:35:34;21.40;99.90
4687;DHT22;2357;47.316;-1.348;2023-05-07T15:38:00;21.60;99.90
4687;DHT22;2357;47.316;-1.348;2023-05-07T15:40:28;21.70;99.90
4687;DHT22;2357;47.316;-1.348;2023-05-07T15:42:54;21.40;99.90
4687;DHT22;2357;47.316;-1.348;2023-05-07T15:45:21;21.60;99.90
4687;DHT22;2357;47.316;-1.348;2023-05-07T15:47:46;21.80;99.90
4687;DHT22;2357;47.316;-1.348;2023-05-07T15:50:12;21.90;99.90
4687;DHT22;2357;47.316;-1.348;2023-05-07T15:52:38;22.30;99.90
4687;DHT22;2357;47.316;-1.348;2023-05-07T15:55:04;22.70;99.90
4687;DHT22;2357;47.316;-1.348;2023-05-07T15:57:31;22.90;99.90
4687;DHT22;2357;47.316;-1.348;2023-05-07T15:59:57;22.60;99.90
4687;DHT22;2357;47.316;-1.348;2023-05-07T16:02:23;22.40;99.90